sensor_id;sensor_type;location;lat;lon;timestamp;P1;durP1;ratioP1;P2;durP2;ratioP2
21721;SDS011;11023;48.274;7.794;2023-05-10T00:01:48;1.70;;;0.70;;
21721;SDS011;11023;48.274;7.794;2023-05-10T00:04:14;4.75;;;0.90;;
21721;SDS011;11023;48.274;7.794;2023-05-10T00:06:40;4.03;;;1.08;;
21721;SDS011;11023;48.274;7.794;2023-05-10T00:09:06;1.85;;;0.90;;
21721;SDS011;11023;48.274;7.794;2023-05-10T00:11:31;2.45;;;1.10;;
21721;SDS011;11023;48.274;7.794;2023-05-10T00:13:57;3.78;;;1.10;;
21721;SDS011;11023;48.274;7.794;2023-05-10T00:16:23;2.10;;;1.00;;
21721;SDS011;11023;48.274;7.794;2023-05-10T00:18:49;2.72;;;1.13;;
21721;SDS011;11023;48.274;7.794;2023-05-10T00:21:14;2.70;;;1.23;;
21721;SDS011;11023;48.274;7.794;2023-05-10T00:23:40;4.47;;;1.05;;
21721;SDS011;11023;48.274;7.794;2023-05-10T00:26:07;1.77;;;0.93;;
21721;SDS011;11023;48.274;7.794;2023-05-10T00:28:33;3.40;;;1.00;;
21721;SDS011;11023;48.274;7.794;2023-05-10T00:30:59;2.85;;;1.08;;
21721;SDS011;11023;48.274;7.794;2023-05-10T00:33:24;1.35;;;0.80;;
21721;SDS011;11023;48.274;7.794;2023-05-10T00:35:50;2.05;;;0.80;;
21721;SDS011;11023;48.274;7.794;2023-05-10T00:38:16;1.83;;;0.55;;
21721;SDS011;11023;48.274;7.794;2023-05-10T00:40:42;1.27;;;0.65;;
21721;SDS011;11023;48.274;7.794;2023-05-10T00:43:09;2.72;;;0.90;;
21721;SDS011;11023;48.274;7.794;2023-05-10T00:45:34;0.93;;;0.63;;
21721;SDS011;11023;48.274;7.794;2023-05-10T00:48:01;4.03;;;0.90;;
21721;SDS011;11023;48.274;7.794;2023-05-10T00:50:28;2.35;;;0.65;;
21721;SDS011;11023;48.274;7.794;2023-05-10T00:52:56;0.77;;;0.68;;
21721;SDS011;11023;48.274;7.794;2023-05-10T00:55:22;2.35;;;0.90;;
21721;SDS011;11023;48.274;7.794;2023-05-10T00:57:49;2.28;;;0.80;;
21721;SDS011;11023;48.274;7.794;2023-05-10T01:00:15;5.50;;;1.00;;
21721;SDS011;11023;48.274;7.794;2023-05-10T01:02:44;1.60;;;0.80;;
21721;SDS011;11023;48.274;7.794;2023-05-10T01:05:11;1.90;;;0.80;;
21721;SDS011;11023;48.274;7.794;2023-05-10T01:07:37;1.05;;;0.75;;
21721;SDS011;11023;48.274;7.794;2023-05-10T01:10:04;3.13;;;0.90;;
21721;SDS011;11023;48.274;7.794;2023-05-10T01:12:32;1.20;;;0.60;;
21721;SDS011;11023;48.274;7.794;2023-05-10T01:15:00;1.08;;;0.70;;
21721;SDS011;11023;48.274;7.794;2023-05-10T01:17:28;1.38;;;0.90;;
21721;SDS011;11023;48.274;7.794;2023-05-10T01:19:55;2.45;;;0.80;;
21721;SDS011;11023;48.274;7.794;2023-05-10T01:39:15;1.92;;;0.80;;
21721;SDS011;11023;48.274;7.794;2023-05-10T01:47:14;1.30;;;1.10;;
21721;SDS011;11023;48.274;7.794;2023-05-10T01:49:46;1.77;;;0.88;;
21721;SDS011;11023;48.274;7.794;2023-05-10T01:52:16;0.77;;;0.77;;
21721;SDS011;11023;48.274;7.794;2023-05-10T01:54:49;2.05;;;0.88;;
21721;SDS011;11023;48.274;7.794;2023-05-10T01:57:25;2.30;;;0.68;;
21721;SDS011;11023;48.274;7.794;2023-05-10T01:59:57;0.85;;;0.85;;
21721;SDS011;11023;48.274;7.794;2023-05-10T02:02:27;6.43;;;1.35;;
21721;SDS011;11023;48.274;7.794;2023-05-10T02:04:55;5.68;;;0.90;;
21721;SDS011;11023;48.274;7.794;2023-05-10T02:07:24;1.92;;;0.90;;
21721;SDS011;11023;48.274;7.794;2023-05-10T02:09:53;1.13;;;0.82;;
21721;SDS011;11023;48.274;7.794;2023-05-10T02:12:21;3.33;;;1.00;;
21721;SDS011;11023;48.274;7.794;2023-05-10T02:14:49;1.40;;;0.80;;
21721;SDS011;11023;48.274;7.794;2023-05-10T02:17:17;1.75;;;0.82;;
21721;SDS011;11023;48.274;7.794;2023-05-10T02:19:46;3.42;;;0.80;;
21721;SDS011;11023;48.274;7.794;2023-05-10T02:22:12;2.60;;;0.80;;
21721;SDS011;11023;48.274;7.794;2023-05-10T02:24:40;2.15;;;0.88;;
21721;SDS011;11023;48.274;7.794;2023-05-10T02:27:08;2.38;;;0.82;;
21721;SDS011;11023;48.274;7.794;2023-05-10T02:29:36;5.88;;;0.95;;
21721;SDS011;11023;48.274;7.794;2023-05-10T02:32:03;2.30;;;0.88;;
21721;SDS011;11023;48.274;7.794;2023-05-10T02:34:31;1.05;;;0.70;;
21721;SDS011;11023;48.274;7.794;2023-05-10T02:36:57;1.27;;;0.70;;
21721;SDS011;11023;48.274;7.794;2023-05-10T02:39:24;0.93;;;0.80;;
21721;SDS011;11023;48.274;7.794;2023-05-10T02:41:53;2.00;;;0.90;;
21721;SDS011;11023;48.274;7.794;2023-05-10T02:44:20;3.33;;;0.90;;
21721;SDS011;11023;48.274;7.794;2023-05-10T02:46:49;3.58;;;0.80;;
21721;SDS011;11023;48.274;7.794;2023-05-10T02:49:15;5.57;;;1.00;;
21721;SDS011;11023;48.274;7.794;2023-05-10T02:51:44;2.75;;;1.00;;
21721;SDS011;11023;48.274;7.794;2023-05-10T02:54:20;1.10;;;0.90;;
21721;SDS011;11023;48.274;7.794;2023-05-10T02:56:58;6.85;;;1.23;;
21721;SDS011;11023;48.274;7.794;2023-05-10T03:01:52;3.90;;;1.00;;
21721;SDS011;11023;48.274;7.794;2023-05-10T03:04:18;2.17;;;1.10;;
21721;SDS011;11023;48.274;7.794;2023-05-10T03:06:44;4.93;;;0.98;;
21721;SDS011;11023;48.274;7.794;2023-05-10T03:09:10;3.63;;;1.10;;
21721;SDS011;11023;48.274;7.794;2023-05-10T03:17:29;3.35;;;1.30;;
21721;SDS011;11023;48.274;7.794;2023-05-10T03:20:03;5.97;;;1.20;;
21721;SDS011;11023;48.274;7.794;2023-05-10T03:22:41;4.32;;;1.00;;
21721;SDS011;11023;48.274;7.794;2023-05-10T03:25:10;4.32;;;1.00;;
21721;SDS011;11023;48.274;7.794;2023-05-10T03:27:39;2.42;;;1.00;;
21721;SDS011;11023;48.274;7.794;2023-05-10T03:30:10;3.20;;;1.00;;
21721;SDS011;11023;48.274;7.794;2023-05-10T03:32:37;6.57;;;1.23;;
21721;SDS011;11023;48.274;7.794;2023-05-10T03:35:08;4.38;;;1.10;;
21721;SDS011;11023;48.274;7.794;2023-05-10T03:37:34;1.70;;;0.80;;
21721;SDS011;11023;48.274;7.794;2023-05-10T03:40:01;2.78;;;1.08;;
21721;SDS011;11023;48.274;7.794;2023-05-10T03:42:27;2.17;;;1.02;;
21721;SDS011;11023;48.274;7.794;2023-05-10T03:44:53;1.77;;;1.10;;
21721;SDS011;11023;48.274;7.794;2023-05-10T03:47:20;2.40;;;1.08;;
21721;SDS011;11023;48.274;7.794;2023-05-10T03:49:46;4.43;;;1.20;;
21721;SDS011;11023;48.274;7.794;2023-05-10T03:52:11;2.53;;;1.10;;
21721;SDS011;11023;48.274;7.794;2023-05-10T03:54:37;3.95;;;1.45;;
21721;SDS011;11023;48.274;7.794;2023-05-10T03:57:03;2.85;;;1.50;;
21721;SDS011;11023;48.274;7.794;2023-05-10T03:59:29;2.72;;;1.42;;
21721;SDS011;11023;48.274;7.794;2023-05-10T04:01:55;5.72;;;1.80;;
21721;SDS011;11023;48.274;7.794;2023-05-10T04:04:21;1.85;;;1.40;;
21721;SDS011;11023;48.274;7.794;2023-05-10T04:06:48;2.50;;;2.00;;
21721;SDS011;11023;48.274;7.794;2023-05-10T04:09:14;1.75;;;1.35;;
21721;SDS011;11023;48.274;7.794;2023-05-10T04:11:41;3.38;;;1.40;;
21721;SDS011;11023;48.274;7.794;2023-05-10T04:14:07;2.40;;;1.30;;
21721;SDS011;11023;48.274;7.794;2023-05-10T04:16:33;2.83;;;1.33;;
21721;SDS011;11023;48.274;7.794;2023-05-10T04:18:59;4.85;;;1.30;;
21721;SDS011;11023;48.274;7.794;2023-05-10T04:21:25;3.85;;;1.20;;
21721;SDS011;11023;48.274;7.794;2023-05-10T04:23:50;1.67;;;1.00;;
21721;SDS011;11023;48.274;7.794;2023-05-10T04:26:16;3.00;;;1.25;;
21721;SDS011;11023;48.274;7.794;2023-05-10T04:28:42;1.40;;;1.15;;
21721;SDS011;11023;48.274;7.794;2023-05-10T04:31:09;2.67;;;1.30;;
21721;SDS011;11023;48.274;7.794;2023-05-10T04:33:36;2.90;;;0.95;;
21721;SDS011;11023;48.274;7.794;2023-05-10T04:36:02;2.88;;;1.23;;
21721;SDS011;11023;48.274;7.794;2023-05-10T04:38:28;1.77;;;1.45;;
21721;SDS011;11023;48.274;7.794;2023-05-10T04:40:55;3.15;;;1.10;;
21721;SDS011;11023;48.274;7.794;2023-05-10T04:43:32;1.30;;;1.20;;
21721;SDS011;11023;48.274;7.794;2023-05-10T04:45:57;1.40;;;1.30;;
21721;SDS011;11023;48.274;7.794;2023-05-10T04:48:23;2.22;;;1.50;;
21721;SDS011;11023;48.274;7.794;2023-05-10T04:50:50;1.40;;;1.30;;
21721;SDS011;11023;48.274;7.794;2023-05-10T04:53:16;1.67;;;1.05;;
21721;SDS011;11023;48.274;7.794;2023-05-10T04:55:42;2.00;;;1.13;;
21721;SDS011;11023;48.274;7.794;2023-05-10T04:58:08;1.42;;;1.30;;
21721;SDS011;11023;48.274;7.794;2023-05-10T05:00:33;3.15;;;1.30;;
21721;SDS011;11023;48.274;7.794;2023-05-10T05:03:00;2.50;;;1.50;;
21721;SDS011;11023;48.274;7.794;2023-05-10T05:05:25;2.72;;;1.75;;
21721;SDS011;11023;48.274;7.794;2023-05-10T05:07:51;2.92;;;1.45;;
21721;SDS011;11023;48.274;7.794;2023-05-10T05:10:17;2.53;;;1.30;;
21721;SDS011;11023;48.274;7.794;2023-05-10T05:12:43;1.90;;;1.20;;
21721;SDS011;11023;48.274;7.794;2023-05-10T05:15:08;3.53;;;1.40;;
21721;SDS011;11023;48.274;7.794;2023-05-10T05:17:35;1.67;;;1.45;;
21721;SDS011;11023;48.274;7.794;2023-05-10T05:20:01;3.08;;;1.35;;
21721;SDS011;11023;48.274;7.794;2023-05-10T05:22:27;2.28;;;1.38;;
21721;SDS011;11023;48.274;7.794;2023-05-10T05:24:55;3.08;;;1.30;;
21721;SDS011;11023;48.274;7.794;2023-05-10T05:27:23;4.30;;;1.50;;
21721;SDS011;11023;48.274;7.794;2023-05-10T05:29:55;3.25;;;1.60;;
21721;SDS011;11023;48.274;7.794;2023-05-10T05:32:22;2.85;;;1.70;;
21721;SDS011;11023;48.274;7.794;2023-05-10T05:34:48;3.00;;;1.65;;
21721;SDS011;11023;48.274;7.794;2023-05-10T05:37:14;3.78;;;1.80;;
21721;SDS011;11023;48.274;7.794;2023-05-10T05:39:41;3.90;;;1.92;;
21721;SDS011;11023;48.274;7.794;2023-05-10T05:42:08;5.22;;;1.90;;
21721;SDS011;11023;48.274;7.794;2023-05-10T05:44:34;3.08;;;1.92;;
21721;SDS011;11023;48.274;7.794;2023-05-10T05:47:00;2.78;;;1.67;;
21721;SDS011;11023;48.274;7.794;2023-05-10T05:49:26;4.70;;;2.10;;
21721;SDS011;11023;48.274;7.794;2023-05-10T05:51:52;2.90;;;1.50;;
21721;SDS011;11023;48.274;7.794;2023-05-10T05:54:17;4.78;;;1.70;;
21721;SDS011;11023;48.274;7.794;2023-05-10T05:56:43;3.92;;;1.70;;
21721;SDS011;11023;48.274;7.794;2023-05-10T05:59:09;3.28;;;1.30;;
21721;SDS011;11023;48.274;7.794;2023-05-10T06:01:36;2.85;;;1.52;;
21721;SDS011;11023;48.274;7.794;2023-05-10T06:04:01;4.93;;;1.50;;
21721;SDS011;11023;48.274;7.794;2023-05-10T06:06:27;2.90;;;1.42;;
21721;SDS011;11023;48.274;7.794;2023-05-10T06:08:53;4.82;;;1.60;;
21721;SDS011;11023;48.274;7.794;2023-05-10T06:11:19;4.45;;;1.60;;
21721;SDS011;11023;48.274;7.794;2023-05-10T06:13:46;2.83;;;1.42;;
21721;SDS011;11023;48.274;7.794;2023-05-10T06:16:12;3.97;;;1.60;;
21721;SDS011;11023;48.274;7.794;2023-05-10T06:18:38;2.92;;;1.60;;
21721;SDS011;11023;48.274;7.794;2023-05-10T06:21:04;4.13;;;1.75;;
21721;SDS011;11023;48.274;7.794;2023-05-10T06:23:30;2.35;;;1.52;;
21721;SDS011;11023;48.274;7.794;2023-05-10T06:25:55;2.38;;;1.90;;
21721;SDS011;11023;48.274;7.794;2023-05-10T06:28:21;3.58;;;1.80;;
21721;SDS011;11023;48.274;7.794;2023-05-10T06:30:47;4.00;;;2.00;;
21721;SDS011;11023;48.274;7.794;2023-05-10T06:33:14;1.80;;;1.60;;
21721;SDS011;11023;48.274;7.794;2023-05-10T06:35:41;3.35;;;1.65;;
21721;SDS011;11023;48.274;7.794;2023-05-10T06:38:06;3.00;;;1.70;;
21721;SDS011;11023;48.274;7.794;2023-05-10T06:40:32;3.58;;;1.77;;
21721;SDS011;11023;48.274;7.794;2023-05-10T06:42:58;3.17;;;1.60;;
21721;SDS011;11023;48.274;7.794;2023-05-10T06:45:24;2.47;;;2.00;;
21721;SDS011;11023;48.274;7.794;2023-05-10T06:47:50;4.60;;;1.90;;
21721;SDS011;11023;48.274;7.794;2023-05-10T06:50:15;1.92;;;1.60;;
21721;SDS011;11023;48.274;7.794;2023-05-10T06:52:41;2.30;;;1.77;;
21721;SDS011;11023;48.274;7.794;2023-05-10T06:55:07;2.75;;;1.83;;
21721;SDS011;11023;48.274;7.794;2023-05-10T06:57:34;5.80;;;2.00;;
21721;SDS011;11023;48.274;7.794;2023-05-10T07:00:00;4.05;;;1.83;;
21721;SDS011;11023;48.274;7.794;2023-05-10T07:02:26;3.00;;;1.90;;
21721;SDS011;11023;48.274;7.794;2023-05-10T07:04:52;2.78;;;1.98;;
21721;SDS011;11023;48.274;7.794;2023-05-10T07:07:18;3.55;;;1.90;;
21721;SDS011;11023;48.274;7.794;2023-05-10T07:09:44;2.67;;;1.73;;
21721;SDS011;11023;48.274;7.794;2023-05-10T07:12:11;4.32;;;1.90;;
21721;SDS011;11023;48.274;7.794;2023-05-10T07:14:37;3.63;;;1.55;;
21721;SDS011;11023;48.274;7.794;2023-05-10T07:17:03;4.40;;;1.60;;
21721;SDS011;11023;48.274;7.794;2023-05-10T07:19:29;3.58;;;1.52;;
21721;SDS011;11023;48.274;7.794;2023-05-10T07:21:55;2.75;;;1.52;;
21721;SDS011;11023;48.274;7.794;2023-05-10T07:24:20;1.98;;;1.30;;
21721;SDS011;11023;48.274;7.794;2023-05-10T07:26:46;1.52;;;1.25;;
21721;SDS011;11023;48.274;7.794;2023-05-10T07:29:13;1.80;;;1.35;;
21721;SDS011;11023;48.274;7.794;2023-05-10T07:31:38;1.92;;;1.00;;
21721;SDS011;11023;48.274;7.794;2023-05-10T07:34:06;3.17;;;1.30;;
21721;SDS011;11023;48.274;7.794;2023-05-10T07:36:32;4.75;;;1.60;;
21721;SDS011;11023;48.274;7.794;2023-05-10T07:39:01;1.52;;;1.20;;
21721;SDS011;11023;48.274;7.794;2023-05-10T07:41:27;3.85;;;1.50;;
21721;SDS011;11023;48.274;7.794;2023-05-10T07:43:53;1.52;;;1.38;;
21721;SDS011;11023;48.274;7.794;2023-05-10T07:46:19;3.88;;;1.20;;
21721;SDS011;11023;48.274;7.794;2023-05-10T07:48:44;3.22;;;1.30;;
21721;SDS011;11023;48.274;7.794;2023-05-10T07:51:10;2.25;;;1.27;;
21721;SDS011;11023;48.274;7.794;2023-05-10T07:53:37;3.17;;;1.45;;
21721;SDS011;11023;48.274;7.794;2023-05-10T07:56:24;5.20;;;1.25;;
21721;SDS011;11023;48.274;7.794;2023-05-10T07:58:57;2.00;;;0.90;;
21721;SDS011;11023;48.274;7.794;2023-05-10T08:01:24;3.97;;;1.10;;
21721;SDS011;11023;48.274;7.794;2023-05-10T08:03:50;2.13;;;0.90;;
21721;SDS011;11023;48.274;7.794;2023-05-10T08:06:18;0.98;;;0.85;;
21721;SDS011;11023;48.274;7.794;2023-05-10T08:08:45;3.95;;;1.20;;
21721;SDS011;11023;48.274;7.794;2023-05-10T08:11:14;2.47;;;1.10;;
21721;SDS011;11023;48.274;7.794;2023-05-10T08:13:44;2.42;;;0.80;;
21721;SDS011;11023;48.274;7.794;2023-05-10T08:16:10;3.33;;;1.00;;
21721;SDS011;11023;48.274;7.794;2023-05-10T08:18:36;1.40;;;0.80;;
21721;SDS011;11023;48.274;7.794;2023-05-10T08:21:02;1.75;;;0.90;;
21721;SDS011;11023;48.274;7.794;2023-05-10T08:23:28;0.73;;;0.60;;
21721;SDS011;11023;48.274;7.794;2023-05-10T08:25:54;0.95;;;0.60;;
21721;SDS011;11023;48.274;7.794;2023-05-10T08:28:19;2.80;;;0.82;;
21721;SDS011;11023;48.274;7.794;2023-05-10T08:30:45;1.13;;;0.68;;
21721;SDS011;11023;48.274;7.794;2023-05-10T08:33:11;2.63;;;0.80;;
21721;SDS011;11023;48.274;7.794;2023-05-10T08:35:37;1.02;;;0.80;;
21721;SDS011;11023;48.274;7.794;2023-05-10T08:38:03;3.53;;;1.08;;
21721;SDS011;11023;48.274;7.794;2023-05-10T08:40:29;3.05;;;0.70;;
21721;SDS011;11023;48.274;7.794;2023-05-10T08:43:04;1.55;;;0.63;;
21721;SDS011;11023;48.274;7.794;2023-05-10T08:45:33;4.30;;;0.60;;
21721;SDS011;11023;48.274;7.794;2023-05-10T08:48:03;1.67;;;0.45;;
21721;SDS011;11023;48.274;7.794;2023-05-10T08:50:31;3.42;;;0.82;;
21721;SDS011;11023;48.274;7.794;2023-05-10T08:52:59;3.78;;;0.80;;
21721;SDS011;11023;48.274;7.794;2023-05-10T08:55:28;3.03;;;0.90;;
21721;SDS011;11023;48.274;7.794;2023-05-10T08:57:55;4.15;;;0.88;;
21721;SDS011;11023;48.274;7.794;2023-05-10T09:00:21;4.70;;;1.20;;
21721;SDS011;11023;48.274;7.794;2023-05-10T09:02:49;2.60;;;1.05;;
21721;SDS011;11023;48.274;7.794;2023-05-10T09:05:15;3.38;;;0.95;;
21721;SDS011;11023;48.274;7.794;2023-05-10T09:07:42;2.67;;;0.68;;
21721;SDS011;11023;48.274;7.794;2023-05-10T09:10:09;1.27;;;0.70;;
21721;SDS011;11023;48.274;7.794;2023-05-10T09:12:35;7.18;;;0.90;;
21721;SDS011;11023;48.274;7.794;2023-05-10T09:15:02;2.45;;;0.82;;
21721;SDS011;11023;48.274;7.794;2023-05-10T09:17:30;2.88;;;0.80;;
21721;SDS011;11023;48.274;7.794;2023-05-10T09:19:59;4.97;;;0.80;;
21721;SDS011;11023;48.274;7.794;2023-05-10T09:22:26;3.88;;;0.85;;
21721;SDS011;11023;48.274;7.794;2023-05-10T09:25:03;4.20;;;0.60;;
21721;SDS011;11023;48.274;7.794;2023-05-10T09:27:32;2.38;;;0.50;;
21721;SDS011;11023;48.274;7.794;2023-05-10T09:29:58;3.13;;;0.80;;
21721;SDS011;11023;48.274;7.794;2023-05-10T09:35:24;3.47;;;0.57;;
21721;SDS011;11023;48.274;7.794;2023-05-10T09:37:52;3.53;;;0.70;;
21721;SDS011;11023;48.274;7.794;2023-05-10T09:40:20;3.42;;;0.55;;
21721;SDS011;11023;48.274;7.794;2023-05-10T09:42:51;1.35;;;0.50;;
21721;SDS011;11023;48.274;7.794;2023-05-10T09:45:20;1.80;;;0.50;;
21721;SDS011;11023;48.274;7.794;2023-05-10T09:47:47;4.68;;;0.60;;
21721;SDS011;11023;48.274;7.794;2023-05-10T09:50:13;2.78;;;0.40;;
21721;SDS011;11023;48.274;7.794;2023-05-10T09:57:58;2.08;;;0.50;;
21721;SDS011;11023;48.274;7.794;2023-05-10T10:00:25;1.67;;;0.50;;
21721;SDS011;11023;48.274;7.794;2023-05-10T10:02:57;7.85;;;0.70;;
21721;SDS011;11023;48.274;7.794;2023-05-10T10:05:30;2.00;;;0.47;;
21721;SDS011;11023;48.274;7.794;2023-05-10T10:07:57;3.47;;;0.68;;
21721;SDS011;11023;48.274;7.794;2023-05-10T10:10:27;1.58;;;0.52;;
21721;SDS011;11023;48.274;7.794;2023-05-10T10:12:54;1.63;;;0.50;;
21721;SDS011;11023;48.274;7.794;2023-05-10T10:15:21;6.07;;;1.10;;
21721;SDS011;11023;48.274;7.794;2023-05-10T10:17:48;5.85;;;0.90;;
21721;SDS011;11023;48.274;7.794;2023-05-10T10:20:15;1.33;;;0.50;;
21721;SDS011;11023;48.274;7.794;2023-05-10T10:22:41;3.92;;;0.60;;
21721;SDS011;11023;48.274;7.794;2023-05-10T10:25:09;0.85;;;0.47;;
21721;SDS011;11023;48.274;7.794;2023-05-10T10:35:58;2.22;;;0.50;;
21721;SDS011;11023;48.274;7.794;2023-05-10T10:38:35;0.75;;;0.50;;
21721;SDS011;11023;48.274;7.794;2023-05-10T10:44:22;2.67;;;0.50;;
21721;SDS011;11023;48.274;7.794;2023-05-10T10:47:01;2.00;;;0.43;;
21721;SDS011;11023;48.274;7.794;2023-05-10T10:49:33;1.88;;;0.57;;
21721;SDS011;11023;48.274;7.794;2023-05-10T10:55:05;6.97;;;0.60;;
21721;SDS011;11023;48.274;7.794;2023-05-10T11:00:18;0.70;;;0.38;;
21721;SDS011;11023;48.274;7.794;2023-05-10T11:02:51;1.80;;;0.50;;
21721;SDS011;11023;48.274;7.794;2023-05-10T11:05:43;2.78;;;0.60;;
21721;SDS011;11023;48.274;7.794;2023-05-10T11:08:30;3.90;;;0.63;;
21721;SDS011;11023;48.274;7.794;2023-05-10T11:16:13;5.65;;;0.55;;
21721;SDS011;11023;48.274;7.794;2023-05-10T11:18:41;2.33;;;0.38;;
21721;SDS011;11023;48.274;7.794;2023-05-10T11:21:32;1.52;;;0.52;;
21721;SDS011;11023;48.274;7.794;2023-05-10T11:23:59;1.10;;;0.38;;
21721;SDS011;11023;48.274;7.794;2023-05-10T11:26:30;2.65;;;0.50;;
21721;SDS011;11023;48.274;7.794;2023-05-10T11:28:57;1.48;;;0.70;;
21721;SDS011;11023;48.274;7.794;2023-05-10T11:31:25;1.55;;;0.43;;
21721;SDS011;11023;48.274;7.794;2023-05-10T11:33:55;2.45;;;0.40;;
21721;SDS011;11023;48.274;7.794;2023-05-10T11:36:29;3.15;;;0.50;;
21721;SDS011;11023;48.274;7.794;2023-05-10T11:38:58;1.23;;;0.40;;
21721;SDS011;11023;48.274;7.794;2023-05-10T11:41:23;1.83;;;0.50;;
21721;SDS011;11023;48.274;7.794;2023-05-10T11:43:51;0.95;;;0.40;;
21721;SDS011;11023;48.274;7.794;2023-05-10T11:46:18;2.58;;;0.70;;
21721;SDS011;11023;48.274;7.794;2023-05-10T11:48:45;0.75;;;0.38;;
21721;SDS011;11023;48.274;7.794;2023-05-10T11:51:14;1.58;;;0.43;;
21721;SDS011;11023;48.274;7.794;2023-05-10T11:53:39;2.80;;;0.70;;
21721;SDS011;11023;48.274;7.794;2023-05-10T11:56:09;2.60;;;0.50;;
21721;SDS011;11023;48.274;7.794;2023-05-10T11:58:37;2.63;;;0.60;;
21721;SDS011;11023;48.274;7.794;2023-05-10T12:01:04;1.40;;;0.50;;
21721;SDS011;11023;48.274;7.794;2023-05-10T12:03:35;1.38;;;0.50;;
21721;SDS011;11023;48.274;7.794;2023-05-10T12:06:01;4.38;;;0.73;;
21721;SDS011;11023;48.274;7.794;2023-05-10T12:08:28;2.80;;;0.65;;
21721;SDS011;11023;48.274;7.794;2023-05-10T12:11:05;4.55;;;0.50;;
21721;SDS011;11023;48.274;7.794;2023-05-10T12:13:32;2.30;;;0.60;;
21721;SDS011;11023;48.274;7.794;2023-05-10T12:16:11;2.80;;;0.50;;
21721;SDS011;11023;48.274;7.794;2023-05-10T12:18:45;1.40;;;0.60;;
21721;SDS011;11023;48.274;7.794;2023-05-10T12:21:14;1.90;;;0.52;;
21721;SDS011;11023;48.274;7.794;2023-05-10T12:23:40;2.92;;;0.50;;
21721;SDS011;11023;48.274;7.794;2023-05-10T12:26:10;5.25;;;0.63;;
21721;SDS011;11023;48.274;7.794;2023-05-10T12:28:36;2.58;;;0.60;;
21721;SDS011;11023;48.274;7.794;2023-05-10T12:31:03;2.38;;;0.60;;
21721;SDS011;11023;48.274;7.794;2023-05-10T12:33:41;5.20;;;0.47;;
21721;SDS011;11023;48.274;7.794;2023-05-10T12:36:08;2.08;;;0.50;;
21721;SDS011;11023;48.274;7.794;2023-05-10T12:38:36;2.63;;;0.50;;
21721;SDS011;11023;48.274;7.794;2023-05-10T12:41:06;2.67;;;0.60;;
21721;SDS011;11023;48.274;7.794;2023-05-10T12:43:33;1.08;;;0.50;;
21721;SDS011;11023;48.274;7.794;2023-05-10T12:48:38;1.20;;;0.50;;
21721;SDS011;11023;48.274;7.794;2023-05-10T12:51:05;1.33;;;0.50;;
21721;SDS011;11023;48.274;7.794;2023-05-10T12:53:34;2.80;;;0.50;;
21721;SDS011;11023;48.274;7.794;2023-05-10T12:56:00;2.80;;;0.40;;
21721;SDS011;11023;48.274;7.794;2023-05-10T12:58:26;1.92;;;0.40;;
21721;SDS011;11023;48.274;7.794;2023-05-10T13:00:52;1.48;;;0.50;;
21721;SDS011;11023;48.274;7.794;2023-05-10T13:03:18;1.42;;;0.50;;
21721;SDS011;11023;48.274;7.794;2023-05-10T13:05:44;1.92;;;0.45;;
21721;SDS011;11023;48.274;7.794;2023-05-10T13:08:10;3.35;;;0.55;;
21721;SDS011;11023;48.274;7.794;2023-05-10T13:10:36;2.88;;;0.40;;
21721;SDS011;11023;48.274;7.794;2023-05-10T13:13:01;1.50;;;0.60;;
21721;SDS011;11023;48.274;7.794;2023-05-10T13:15:27;0.73;;;0.40;;
21721;SDS011;11023;48.274;7.794;2023-05-10T13:17:53;2.50;;;0.57;;
21721;SDS011;11023;48.274;7.794;2023-05-10T13:20:19;1.48;;;0.50;;
21721;SDS011;11023;48.274;7.794;2023-05-10T13:22:45;1.63;;;0.60;;
21721;SDS011;11023;48.274;7.794;2023-05-10T13:25:11;2.00;;;0.57;;
21721;SDS011;11023;48.274;7.794;2023-05-10T13:27:38;1.23;;;0.43;;
21721;SDS011;11023;48.274;7.794;2023-05-10T13:30:04;4.28;;;0.70;;
21721;SDS011;11023;48.274;7.794;2023-05-10T13:32:31;2.72;;;0.57;;
21721;SDS011;11023;48.274;7.794;2023-05-10T13:34:57;1.30;;;0.47;;
21721;SDS011;11023;48.274;7.794;2023-05-10T13:37:23;2.53;;;0.47;;
21721;SDS011;11023;48.274;7.794;2023-05-10T13:39:48;1.17;;;0.40;;
21721;SDS011;11023;48.274;7.794;2023-05-10T13:42:14;1.35;;;0.47;;
21721;SDS011;11023;48.274;7.794;2023-05-10T13:44:40;1.20;;;0.30;;
21721;SDS011;11023;48.274;7.794;2023-05-10T13:47:05;1.05;;;0.50;;
21721;SDS011;11023;48.274;7.794;2023-05-10T13:49:31;1.55;;;0.40;;
21721;SDS011;11023;48.274;7.794;2023-05-10T13:51:58;2.10;;;0.40;;
21721;SDS011;11023;48.274;7.794;2023-05-10T13:54:30;1.35;;;0.22;;
21721;SDS011;11023;48.274;7.794;2023-05-10T13:56:56;0.73;;;0.30;;
21721;SDS011;11023;48.274;7.794;2023-05-10T13:59:22;5.53;;;0.77;;
21721;SDS011;11023;48.274;7.794;2023-05-10T14:01:48;2.00;;;0.60;;
21721;SDS011;11023;48.274;7.794;2023-05-10T14:04:13;1.65;;;0.63;;
21721;SDS011;11023;48.274;7.794;2023-05-10T14:06:42;1.83;;;0.38;;
21721;SDS011;11023;48.274;7.794;2023-05-10T14:09:08;1.80;;;0.50;;
21721;SDS011;11023;48.274;7.794;2023-05-10T14:11:33;1.08;;;0.50;;
21721;SDS011;11023;48.274;7.794;2023-05-10T14:13:59;3.40;;;0.60;;
21721;SDS011;11023;48.274;7.794;2023-05-10T14:16:24;0.88;;;0.30;;
21721;SDS011;11023;48.274;7.794;2023-05-10T14:18:51;1.25;;;0.40;;
21721;SDS011;11023;48.274;7.794;2023-05-10T14:21:16;1.40;;;0.40;;
21721;SDS011;11023;48.274;7.794;2023-05-10T14:23:42;0.98;;;0.30;;
21721;SDS011;11023;48.274;7.794;2023-05-10T14:26:08;1.70;;;0.43;;
21721;SDS011;11023;48.274;7.794;2023-05-10T14:28:33;0.60;;;0.25;;
21721;SDS011;11023;48.274;7.794;2023-05-10T14:30:59;0.47;;;0.30;;
21721;SDS011;11023;48.274;7.794;2023-05-10T14:33:25;0.70;;;0.40;;
21721;SDS011;11023;48.274;7.794;2023-05-10T14:35:50;1.70;;;0.40;;
21721;SDS011;11023;48.274;7.794;2023-05-10T14:38:16;0.50;;;0.28;;
21721;SDS011;11023;48.274;7.794;2023-05-10T14:40:42;1.80;;;0.20;;
21721;SDS011;11023;48.274;7.794;2023-05-10T14:43:08;0.95;;;0.25;;
21721;SDS011;11023;48.274;7.794;2023-05-10T14:45:33;1.48;;;0.30;;
21721;SDS011;11023;48.274;7.794;2023-05-10T14:47:59;1.48;;;0.20;;
21721;SDS011;11023;48.274;7.794;2023-05-10T14:50:26;1.50;;;0.50;;
21721;SDS011;11023;48.274;7.794;2023-05-10T14:52:51;3.00;;;0.30;;
21721;SDS011;11023;48.274;7.794;2023-05-10T14:55:19;1.73;;;0.20;;
21721;SDS011;11023;48.274;7.794;2023-05-10T14:57:45;0.60;;;0.30;;
21721;SDS011;11023;48.274;7.794;2023-05-10T15:00:12;2.40;;;0.40;;
21721;SDS011;11023;48.274;7.794;2023-05-10T15:02:40;2.22;;;0.60;;
21721;SDS011;11023;48.274;7.794;2023-05-10T15:05:06;0.95;;;0.40;;
21721;SDS011;11023;48.274;7.794;2023-05-10T15:07:32;2.90;;;0.60;;
21721;SDS011;11023;48.274;7.794;2023-05-10T15:09:57;7.00;;;0.90;;
21721;SDS011;11023;48.274;7.794;2023-05-10T15:12:23;4.20;;;0.52;;
21721;SDS011;11023;48.274;7.794;2023-05-10T15:14:49;2.80;;;0.63;;
21721;SDS011;11023;48.274;7.794;2023-05-10T15:17:14;0.98;;;0.20;;
21721;SDS011;11023;48.274;7.794;2023-05-10T15:19:41;2.53;;;0.55;;
21721;SDS011;11023;48.274;7.794;2023-05-10T15:22:07;2.42;;;0.55;;
21721;SDS011;11023;48.274;7.794;2023-05-10T15:24:33;1.63;;;0.40;;
21721;SDS011;11023;48.274;7.794;2023-05-10T15:26:59;0.93;;;0.40;;
21721;SDS011;11023;48.274;7.794;2023-05-10T15:29:25;3.05;;;0.65;;
21721;SDS011;11023;48.274;7.794;2023-05-10T15:31:51;1.55;;;0.55;;
21721;SDS011;11023;48.274;7.794;2023-05-10T15:34:17;1.23;;;0.30;;
21721;SDS011;11023;48.274;7.794;2023-05-10T15:36:43;0.73;;;0.30;;
21721;SDS011;11023;48.274;7.794;2023-05-10T15:39:10;2.97;;;0.50;;
21721;SDS011;11023;48.274;7.794;2023-05-10T15:41:35;1.27;;;0.50;;
21721;SDS011;11023;48.274;7.794;2023-05-10T15:44:01;1.45;;;0.40;;
21721;SDS011;11023;48.274;7.794;2023-05-10T15:46:27;1.38;;;0.55;;
21721;SDS011;11023;48.274;7.794;2023-05-10T15:48:53;3.72;;;0.52;;
21721;SDS011;11023;48.274;7.794;2023-05-10T15:51:19;3.15;;;0.50;;
21721;SDS011;11023;48.274;7.794;2023-05-10T15:53:45;2.00;;;0.60;;